Terminal Aerodrome Forecast
Issued by NWS Topeka, KS

Home | Current Version | Previous Version | Text Only | Print | Product List | Glossary On
Versions: 1 2 3 4 5 6 7 8 9 10 11 12 13 14 15 16 17
000
FTUS43 KTOP 211724
TAFTOP
TAF
KTOP 211724Z 2118/2218 19008KT P6SM SCT060 BKN150
     FM212200 18009KT P6SM VCTS SCT050CB BKN090
     FM220300 15005KT 3SM TSRA SCT035 OVC080CB
     FM221200 36009KT P6SM SCT025 OVC060
      TEMPO 2214/2218 BKN025=

USA.gov is the U.S. government's official web portal to all federal, state and local government web resources and services.